NCAR-RAP Real-Time Weather Data

Output produced by METARs form (23 April 2019  08:12 UTC)
found at http://weather.rap.ucar.edu/surface/
 
KALO 230754Z AUTO 34011KT 10SM OVC011 09/07 A3000 RMK AO2 SLP162 T00890072